CA-0570 weather

CLOSED RCAF Detachment Alliston
Alliston, Ontario, Canada

Public forecast

Using degrees Celsius for public forecast. Weather courtesy of forecast.io.

Closest aviation weather report (METAR) to RCAF Detachment Alliston

Closest report is CFB Borden, 9.9 nm (18.4 km) NNW. Retrieved 2019/10/22 04:00 UTC (36 minutes ago):

CYBN 220400Z AUTO 15005KT 110V170 9SM -RA OVC055 14/09 A2976 RMK SLP080

Closest aviation forecast (TAF) to RCAF Detachment Alliston

Closest forecast is CFB Borden, 9.9 nm (18.4 km) NNW. Retrieved 2019-10-22 00:33 UTC (4 hours ago):

TAF TAF CYBN 212330Z 2200/2212 13010KT P6SM BKN080 OVC170 TEMPO 2200/2203 P6SM -SHRA FM220300 14010G20KT P6SM FEW020 OVC060 TEMPO 2203/2206 P6SM -RA BKN020 OVC060 FM220600 15012G22KT 4SM -RA BR FEW008 OVC020 TEMPO 2206/2210 2SM SHRA BR BKN008 OVC020 FM221000 16012G22KT 3SM -RA BR OVC008 TEMPO 2210/2212 6SM -RA BR SCT008 OVC015 RMK FCST BASED ON AUTO OBS NXT FCST BY 220600Z